createdAt,value
2023-03-25T00:00:18.521Z,11.40
2023-03-25T00:02:47.832Z,11.50
2023-03-25T00:05:16.993Z,11.40
2023-03-25T00:07:45.572Z,11.40
2023-03-25T00:10:14.258Z,11.40
2023-03-25T00:12:43.025Z,11.40
2023-03-25T00:15:12.136Z,11.30
2023-03-25T00:17:39.479Z,11.40
2023-03-25T00:20:10.022Z,11.40
2023-03-25T00:22:41.415Z,11.40
2023-03-25T00:25:10.934Z,11.30
2023-03-25T00:27:38.531Z,11.30
2023-03-25T00:30:06.747Z,11.30
2023-03-25T00:32:33.909Z,11.20
2023-03-25T00:35:01.130Z,11.20
2023-03-25T00:37:28.217Z,11.10
2023-03-25T00:39:55.295Z,11.20
2023-03-25T00:42:26.473Z,11.10
2023-03-25T00:44:54.474Z,11.10
2023-03-25T00:47:22.320Z,11.00
2023-03-25T00:49:51.946Z,11.10
2023-03-25T00:52:23.293Z,11.10
2023-03-25T00:54:52.940Z,11.20
2023-03-25T00:57:20.078Z,11.20
2023-03-25T00:59:47.205Z,11.20
2023-03-25T01:02:16.633Z,11.20
2023-03-25T01:04:45.784Z,11.10
2023-03-25T01:07:16.089Z,11.00
2023-03-25T01:09:46.918Z,11.00
2023-03-25T01:12:15.878Z,10.90
2023-03-25T01:14:43.919Z,10.90
2023-03-25T01:17:11.293Z,10.90
2023-03-25T01:19:38.590Z,10.90
2023-03-25T01:22:07.155Z,10.90
2023-03-25T01:24:34.246Z,10.90
2023-03-25T01:27:01.464Z,10.80
2023-03-25T01:29:28.670Z,10.80
2023-03-25T01:31:56.229Z,10.80
2023-03-25T01:34:24.440Z,10.80
2023-03-25T01:36:51.546Z,10.80
2023-03-25T01:39:19.582Z,10.90
2023-03-25T01:41:50.692Z,10.80
2023-03-25T01:44:21.153Z,10.80
2023-03-25T01:46:54.006Z,10.70
2023-03-25T01:49:33.756Z,10.70
2023-03-25T01:52:05.947Z,10.60
2023-03-25T01:54:33.771Z,10.60
2023-03-25T01:57:01.498Z,10.50
2023-03-25T01:59:29.733Z,10.50
2023-03-25T02:01:59.735Z,10.50
2023-03-25T02:04:45.706Z,10.50
2023-03-25T02:07:16.840Z,10.40
2023-03-25T02:09:44.092Z,10.40
2023-03-25T02:12:11.281Z,10.40
2023-03-25T02:14:39.412Z,10.40
2023-03-25T02:17:39.715Z,10.40
2023-03-25T02:20:31.127Z,10.40
2023-03-25T02:23:28.634Z,10.30
2023-03-25T02:26:29.948Z,10.20
2023-03-25T02:29:15.739Z,10.30
2023-03-25T02:31:54.530Z,10.30
2023-03-25T02:34:48.886Z,10.30
2023-03-25T02:37:47.166Z,10.20
2023-03-25T02:40:21.184Z,10.30
2023-03-25T02:43:05.963Z,10.30
2023-03-25T02:45:37.343Z,10.30
2023-03-25T02:48:12.131Z,10.30
2023-03-25T02:50:44.226Z,10.30
2023-03-25T02:53:16.990Z,10.30
2023-03-25T02:55:45.633Z,10.30
2023-03-25T02:58:16.893Z,10.40
2023-03-25T03:00:45.266Z,10.40
2023-03-25T03:03:12.592Z,10.40
2023-03-25T03:05:45.077Z,10.50
2023-03-25T03:08:42.670Z,10.50
2023-03-25T03:11:20.543Z,10.50
2023-03-25T03:14:14.964Z,10.50
2023-03-25T03:17:12.579Z,10.50
2023-03-25T03:19:46.691Z,10.40
2023-03-25T03:22:39.150Z,10.40
2023-03-25T03:25:06.199Z,10.40
2023-03-25T03:27:51.914Z,10.30
2023-03-25T03:30:51.492Z,10.20
2023-03-25T03:33:32.605Z,10.10
2023-03-25T03:36:04.798Z,10.10
2023-03-25T03:38:48.278Z,10.20
2023-03-25T03:41:20.798Z,10.10
2023-03-25T03:44:08.237Z,10.00
2023-03-25T03:46:42.266Z,10.00
2023-03-25T03:49:20.581Z,9.90
2023-03-25T03:52:08.941Z,9.80
2023-03-25T03:54:53.162Z,9.70
2023-03-25T03:57:49.843Z,9.60
2023-03-25T04:00:24.251Z,9.60
2023-03-25T04:02:57.382Z,9.60
2023-03-25T04:05:31.044Z,9.50
2023-03-25T04:08:26.676Z,9.40
2023-03-25T04:11:03.932Z,9.30
2023-03-25T04:13:36.226Z,9.20
2023-03-25T04:16:03.513Z,9.10
2023-03-25T04:18:33.924Z,9.00
2023-03-25T04:21:01.704Z,8.90
2023-03-25T04:23:34.320Z,8.90
2023-03-25T04:26:03.053Z,8.90
2023-03-25T04:28:31.982Z,9.00
2023-03-25T04:31:00.870Z,9.00
2023-03-25T04:33:32.265Z,9.00
2023-03-25T04:36:02.117Z,9.20
2023-03-25T04:38:29.816Z,9.40
2023-03-25T04:40:58.588Z,9.40
2023-03-25T04:43:25.645Z,9.50
2023-03-25T04:45:55.072Z,9.50
2023-03-25T04:48:32.583Z,9.50
2023-03-25T04:51:02.009Z,9.40
2023-03-25T04:53:29.975Z,9.40
2023-03-25T04:55:57.106Z,9.40
2023-03-25T04:58:24.353Z,9.50
2023-03-25T05:00:52.956Z,9.60
2023-03-25T05:03:26.019Z,9.80
2023-03-25T05:05:53.691Z,9.90
2023-03-25T05:08:23.646Z,10.00
2023-03-25T05:10:50.874Z,10.10
2023-03-25T05:13:18.287Z,10.10
2023-03-25T05:15:45.438Z,10.20
2023-03-25T05:18:15.660Z,10.20
2023-03-25T05:20:46.983Z,10.20
2023-03-25T05:23:18.356Z,10.30
2023-03-25T05:25:51.110Z,10.50
2023-03-25T05:28:19.316Z,10.60
2023-03-25T05:30:48.118Z,10.80
2023-03-25T05:33:17.965Z,10.90
2023-03-25T05:35:45.679Z,11.00
2023-03-25T05:38:16.867Z,11.00
2023-03-25T05:40:45.934Z,10.90
2023-03-25T05:43:15.138Z,10.90
2023-03-25T05:45:43.561Z,10.90
2023-03-25T05:48:10.712Z,10.80
2023-03-25T05:50:38.647Z,10.80
2023-03-25T05:53:05.667Z,10.90
2023-03-25T05:55:32.802Z,10.90
2023-03-25T05:57:59.898Z,11.00
2023-03-25T06:00:27.115Z,11.00
2023-03-25T06:02:55.071Z,10.90
2023-03-25T06:05:24.016Z,11.00
2023-03-25T06:07:51.812Z,11.00
2023-03-25T06:10:19.311Z,10.90
2023-03-25T06:12:47.820Z,10.80
2023-03-25T06:15:37.344Z,10.80
2023-03-25T06:18:04.701Z,10.80
2023-03-25T06:20:31.992Z,10.80
2023-03-25T06:22:59.126Z,10.80
2023-03-25T06:25:26.981Z,10.80
2023-03-25T06:27:56.263Z,10.90
2023-03-25T06:30:23.431Z,10.90
2023-03-25T06:32:51.070Z,10.90
2023-03-25T06:35:20.609Z,11.00
2023-03-25T06:37:49.366Z,11.00
2023-03-25T06:40:17.329Z,11.10
2023-03-25T06:42:44.670Z,11.10
2023-03-25T06:45:12.941Z,11.20
2023-03-25T06:47:40.301Z,11.20
2023-03-25T06:50:08.066Z,11.20
2023-03-25T06:52:36.106Z,11.20
2023-03-25T06:55:03.736Z,11.20
2023-03-25T06:57:31.591Z,11.20
2023-03-25T06:59:58.774Z,11.30
2023-03-25T07:02:25.836Z,11.40
2023-03-25T07:04:53.006Z,11.60
2023-03-25T07:07:20.058Z,11.70
2023-03-25T07:09:51.996Z,11.90
2023-03-25T07:12:19.062Z,12.10
2023-03-25T07:14:54.945Z,12.10
2023-03-25T07:17:22.922Z,12.20
2023-03-25T07:19:50.952Z,12.30
2023-03-25T07:22:18.327Z,12.30
2023-03-25T07:24:45.810Z,12.30
2023-03-25T07:27:14.695Z,12.50
2023-03-25T07:29:42.145Z,12.70
2023-03-25T07:32:09.235Z,12.60
2023-03-25T07:34:36.515Z,12.60
2023-03-25T07:37:04.262Z,12.50
2023-03-25T07:39:31.482Z,12.20
2023-03-25T07:42:00.826Z,12.00
2023-03-25T07:44:27.972Z,11.70
2023-03-25T07:46:55.240Z,11.70
2023-03-25T07:49:22.369Z,11.60
2023-03-25T07:51:49.497Z,11.50
2023-03-25T07:54:16.629Z,11.50
2023-03-25T07:56:44.000Z,11.50
2023-03-25T07:59:11.091Z,11.50
2023-03-25T08:01:38.372Z,11.40
2023-03-25T08:04:05.969Z,11.30
2023-03-25T08:06:33.129Z,11.30
2023-03-25T08:09:00.203Z,11.30
2023-03-25T08:11:27.467Z,11.30
2023-03-25T08:13:54.647Z,11.40
2023-03-25T08:16:22.031Z,11.60
2023-03-25T08:18:52.992Z,11.80
2023-03-25T08:21:25.375Z,11.80
2023-03-25T08:23:58.567Z,11.90
2023-03-25T08:26:27.539Z,12.10
2023-03-25T08:28:58.280Z,12.40
2023-03-25T08:31:31.219Z,12.60
2023-03-25T08:33:59.995Z,12.90
2023-03-25T08:36:27.944Z,13.30
2023-03-25T08:38:55.494Z,13.40
2023-03-25T08:41:22.721Z,13.50
2023-03-25T08:43:50.408Z,13.70
2023-03-25T08:46:17.952Z,14.10
2023-03-25T08:48:46.321Z,13.90
2023-03-25T08:51:14.394Z,14.10
2023-03-25T08:53:41.646Z,14.10
2023-03-25T08:56:10.919Z,14.30
2023-03-25T08:58:38.527Z,14.20
2023-03-25T09:01:07.012Z,14.10
2023-03-25T09:03:37.943Z,13.60
2023-03-25T09:06:06.740Z,13.30
2023-03-25T09:08:34.915Z,13.10
2023-03-25T09:11:02.349Z,13.00
2023-03-25T09:13:30.081Z,13.20
2023-03-25T09:15:59.333Z,13.20
2023-03-25T09:18:26.478Z,13.50
2023-03-25T09:20:59.387Z,13.60
2023-03-25T09:23:27.099Z,13.80
2023-03-25T09:25:54.284Z,14.10
2023-03-25T09:28:21.455Z,14.20
2023-03-25T09:30:48.682Z,14.50
2023-03-25T09:33:17.275Z,14.60
2023-03-25T09:35:44.654Z,14.30
2023-03-25T09:38:11.769Z,14.20
2023-03-25T09:40:44.942Z,14.40
2023-03-25T09:43:25.724Z,14.50
2023-03-25T09:45:54.648Z,14.80
2023-03-25T09:48:40.236Z,14.90
2023-03-25T09:51:32.279Z,15.00
2023-03-25T09:54:17.892Z,14.80
2023-03-25T09:56:46.208Z,14.50
2023-03-25T09:59:28.741Z,14.20
2023-03-25T10:02:26.349Z,13.80
2023-03-25T10:05:19.108Z,13.50
2023-03-25T10:08:00.557Z,13.30
2023-03-25T10:10:52.587Z,13.50
2023-03-25T10:14:04.937Z,13.50
2023-03-25T10:16:51.041Z,13.30
2023-03-25T10:19:36.126Z,13.50
2023-03-25T10:22:10.036Z,13.70
2023-03-25T10:24:49.114Z,14.00
2023-03-25T10:27:40.103Z,14.20
2023-03-25T10:30:13.345Z,14.50
2023-03-25T10:33:22.720Z,14.70
2023-03-25T10:35:50.286Z,14.60
2023-03-25T10:38:24.449Z,14.60
2023-03-25T10:40:59.121Z,14.80
2023-03-25T10:43:31.504Z,14.90
2023-03-25T10:46:06.938Z,15.20
2023-03-25T10:48:34.815Z,15.50
2023-03-25T10:51:15.166Z,15.90
2023-03-25T10:53:45.832Z,16.20
2023-03-25T10:56:21.863Z,16.20
2023-03-25T10:58:56.436Z,16.10
2023-03-25T11:01:38.210Z,15.80
2023-03-25T11:04:08.447Z,15.70
2023-03-25T11:06:42.797Z,15.70
2023-03-25T11:09:30.845Z,15.60
2023-03-25T11:12:02.905Z,15.30
2023-03-25T11:14:30.612Z,15.20
2023-03-25T11:17:03.175Z,15.00
2023-03-25T11:20:00.882Z,14.50
2023-03-25T11:22:35.169Z,14.30
2023-03-25T11:25:12.810Z,14.20
2023-03-25T11:27:56.734Z,14.10
2023-03-25T11:30:25.776Z,14.10
2023-03-25T11:33:17.714Z,14.30
2023-03-25T11:35:49.539Z,14.40
2023-03-25T11:38:23.708Z,14.50
2023-03-25T11:40:57.398Z,14.80
2023-03-25T11:43:27.946Z,15.10
2023-03-25T11:45:55.587Z,15.40
2023-03-25T11:48:25.137Z,15.50
2023-03-25T11:50:57.775Z,15.50
2023-03-25T11:53:27.734Z,15.10
2023-03-25T11:56:05.193Z,15.40
2023-03-25T11:58:37.434Z,15.70
2023-03-25T12:01:22.958Z,15.90
2023-03-25T12:03:52.059Z,16.00
2023-03-25T12:06:22.634Z,16.60
2023-03-25T12:09:00.769Z,16.80
2023-03-25T12:11:36.862Z,16.50
2023-03-25T12:14:28.601Z,16.50
2023-03-25T12:17:33.185Z,16.20
2023-03-25T12:20:21.911Z,15.80
2023-03-25T12:23:10.968Z,15.60
2023-03-25T12:25:44.190Z,15.90
2023-03-25T12:28:33.487Z,16.50
2023-03-25T12:31:20.896Z,16.20
2023-03-25T12:33:59.141Z,16.20
2023-03-25T12:36:44.790Z,15.90
2023-03-25T12:39:42.730Z,15.70
2023-03-25T12:42:33.829Z,15.60
2023-03-25T12:45:33.524Z,15.60
2023-03-25T12:48:03.820Z,15.60
2023-03-25T12:50:37.332Z,15.80
2023-03-25T12:53:04.732Z,15.60
2023-03-25T12:55:41.036Z,15.40
2023-03-25T12:58:34.452Z,15.30
2023-03-25T13:01:21.720Z,15.30
2023-03-25T13:04:07.963Z,15.00
2023-03-25T13:07:11.809Z,14.90
2023-03-25T13:09:55.245Z,15.00
2023-03-25T13:12:42.273Z,15.00
2023-03-25T13:15:26.321Z,15.00
2023-03-25T13:18:07.530Z,15.10
2023-03-25T13:20:40.488Z,14.90
2023-03-25T13:23:13.697Z,15.00
2023-03-25T13:26:08.864Z,15.00
2023-03-25T13:28:54.403Z,15.20
2023-03-25T13:31:27.644Z,15.30
2023-03-25T13:34:14.920Z,15.40
2023-03-25T13:36:48.312Z,15.00
2023-03-25T13:39:23.616Z,15.40
2023-03-25T13:42:18.072Z,15.50
2023-03-25T13:44:51.193Z,15.20
2023-03-25T13:47:29.885Z,14.90
2023-03-25T13:50:27.206Z,14.70
2023-03-25T13:53:21.558Z,14.60
2023-03-25T13:56:02.793Z,14.40
2023-03-25T13:58:52.520Z,14.70
2023-03-25T14:01:32.095Z,14.90
2023-03-25T14:04:20.850Z,14.90
2023-03-25T14:07:15.588Z,14.60
2023-03-25T14:10:24.538Z,14.40
2023-03-25T14:12:56.746Z,14.70
2023-03-25T14:15:28.611Z,15.50
2023-03-25T14:17:56.297Z,16.00
2023-03-25T14:20:34.774Z,15.80
2023-03-25T14:23:08.085Z,15.50
2023-03-25T14:25:40.088Z,15.20
2023-03-25T14:28:12.739Z,15.00
2023-03-25T14:30:40.384Z,14.80
2023-03-25T14:33:13.122Z,14.60
2023-03-25T14:35:42.014Z,14.60
2023-03-25T14:38:09.109Z,14.80
2023-03-25T14:41:02.140Z,15.00
2023-03-25T14:43:36.205Z,15.30
2023-03-25T14:46:18.816Z,15.40
2023-03-25T14:49:09.214Z,15.50
2023-03-25T14:51:41.289Z,15.80
2023-03-25T14:54:23.284Z,16.00
2023-03-25T14:57:19.260Z,16.00
2023-03-25T14:59:52.049Z,15.90
2023-03-25T15:02:30.862Z,15.80
2023-03-25T15:05:13.884Z,15.70
2023-03-25T15:07:46.795Z,15.70
2023-03-25T15:10:41.315Z,15.30
2023-03-25T15:13:17.475Z,15.00
2023-03-25T15:15:49.694Z,14.70
2023-03-25T15:18:35.264Z,14.60
2023-03-25T15:21:08.368Z,14.50
2023-03-25T15:24:26.753Z,14.50
2023-03-25T15:26:58.661Z,14.40
2023-03-25T15:29:49.378Z,14.40
2023-03-25T15:32:48.259Z,14.40
2023-03-25T15:35:34.641Z,14.70
2023-03-25T15:38:25.044Z,14.80
2023-03-25T15:41:28.387Z,14.90
2023-03-25T15:44:28.231Z,14.70
2023-03-25T15:47:18.572Z,14.70
2023-03-25T15:50:07.876Z,14.90
2023-03-25T15:52:50.172Z,14.90
2023-03-25T15:55:46.754Z,14.80
2023-03-25T15:58:24.420Z,14.50
2023-03-25T16:00:56.294Z,14.30
2023-03-25T16:03:30.904Z,14.20
2023-03-25T16:06:01.917Z,14.10
2023-03-25T16:08:34.688Z,14.00
2023-03-25T16:11:34.288Z,14.00
2023-03-25T16:14:04.982Z,13.90
2023-03-25T16:16:36.265Z,13.70
2023-03-25T16:19:05.800Z,13.50
2023-03-25T16:21:33.556Z,13.10
2023-03-25T16:24:06.864Z,11.50
2023-03-25T16:26:40.437Z,10.30
2023-03-25T16:29:24.077Z,9.70
2023-03-25T16:32:01.762Z,9.30
2023-03-25T16:34:38.398Z,9.20
2023-03-25T16:37:07.610Z,9.10
2023-03-25T16:39:37.384Z,9.00
2023-03-25T16:42:11.652Z,8.90
2023-03-25T16:44:39.284Z,8.80
2023-03-25T16:47:06.758Z,8.70
2023-03-25T16:49:40.069Z,8.60
2023-03-25T16:52:14.766Z,8.50
2023-03-25T16:54:47.559Z,8.50
2023-03-25T16:57:25.300Z,8.40
2023-03-25T16:59:54.481Z,8.40
2023-03-25T17:02:54.679Z,8.30
2023-03-25T17:05:29.196Z,8.30
2023-03-25T17:08:00.394Z,8.20
2023-03-25T17:10:46.946Z,8.10
2023-03-25T17:13:41.345Z,8.00
2023-03-25T17:16:09.193Z,7.90
2023-03-25T17:18:40.973Z,7.90
2023-03-25T17:21:12.642Z,7.90
2023-03-25T17:23:43.710Z,7.90
2023-03-25T17:26:14.203Z,7.90
2023-03-25T17:29:00.026Z,8.00
2023-03-25T17:31:35.084Z,8.10
2023-03-25T17:34:14.641Z,8.20
2023-03-25T17:36:47.910Z,8.40
2023-03-25T17:39:26.382Z,8.40
2023-03-25T17:42:08.992Z,8.40
2023-03-25T17:44:39.542Z,8.40
2023-03-25T17:47:12.901Z,8.40
2023-03-25T17:49:40.530Z,8.40
2023-03-25T17:52:09.336Z,7.80
2023-03-25T17:54:37.573Z,6.70
2023-03-25T17:57:10.403Z,6.10
2023-03-25T17:59:37.814Z,5.70
2023-03-25T18:02:14.895Z,5.70
2023-03-25T18:04:42.311Z,5.60
2023-03-25T18:07:09.569Z,5.60
2023-03-25T18:09:38.670Z,5.70
2023-03-25T18:12:06.744Z,5.70
2023-03-25T18:14:35.619Z,5.80
2023-03-25T18:17:04.345Z,5.80
2023-03-25T18:19:32.341Z,5.80
2023-03-25T18:22:13.942Z,5.80
2023-03-25T18:24:47.533Z,5.90
2023-03-25T18:27:16.997Z,5.90
2023-03-25T18:29:44.349Z,6.00
2023-03-25T18:32:12.085Z,6.00
2023-03-25T18:34:40.305Z,6.10
2023-03-25T18:37:10.636Z,6.00
2023-03-25T18:39:39.152Z,6.10
2023-03-25T18:42:06.907Z,6.20
2023-03-25T18:44:34.850Z,6.20
2023-03-25T18:47:02.621Z,6.30
2023-03-25T18:49:30.514Z,6.40
2023-03-25T18:51:59.790Z,6.40
2023-03-25T18:54:28.267Z,6.40
2023-03-25T18:56:57.027Z,6.30
2023-03-25T18:59:26.607Z,6.30
2023-03-25T19:01:54.578Z,6.40
2023-03-25T19:04:22.475Z,6.30
2023-03-25T19:06:51.026Z,6.30
2023-03-25T19:09:19.541Z,6.40
2023-03-25T19:11:49.229Z,6.40
2023-03-25T19:14:16.729Z,6.50
2023-03-25T19:16:57.325Z,6.50
2023-03-25T19:19:30.809Z,6.50
2023-03-25T19:21:59.029Z,6.60
2023-03-25T19:24:28.763Z,6.60
2023-03-25T19:26:57.429Z,6.60
2023-03-25T19:29:26.252Z,6.60
2023-03-25T19:31:55.091Z,6.60
2023-03-25T19:34:22.504Z,6.60
2023-03-25T19:36:50.564Z,6.60
2023-03-25T19:39:19.353Z,6.60
2023-03-25T19:41:48.632Z,6.60
2023-03-25T19:44:17.094Z,6.60
2023-03-25T19:46:46.332Z,6.50
2023-03-25T19:49:16.056Z,6.60
2023-03-25T19:51:46.761Z,6.50
2023-03-25T19:54:15.562Z,6.40
2023-03-25T19:56:44.139Z,6.30
2023-03-25T19:59:12.357Z,6.30
2023-03-25T20:01:42.166Z,6.10
2023-03-25T20:04:10.476Z,6.00
2023-03-25T20:06:38.793Z,6.00
2023-03-25T20:09:07.278Z,5.90
2023-03-25T20:11:35.222Z,5.90
2023-03-25T20:14:03.362Z,5.90
2023-03-25T20:16:33.031Z,5.80
2023-03-25T20:19:02.426Z,5.80
2023-03-25T20:21:30.444Z,5.70
2023-03-25T20:23:59.677Z,5.60
2023-03-25T20:26:28.094Z,5.50
2023-03-25T20:28:55.895Z,5.50
2023-03-25T20:31:25.308Z,5.50
2023-03-25T20:33:53.821Z,5.50
2023-03-25T20:36:22.063Z,5.40
2023-03-25T20:38:57.530Z,5.40
2023-03-25T20:41:27.329Z,5.30
2023-03-25T20:43:55.629Z,5.20
2023-03-25T20:46:27.920Z,5.10
2023-03-25T20:48:57.417Z,5.10
2023-03-25T20:51:25.731Z,5.00
2023-03-25T20:53:53.792Z,5.00
2023-03-25T20:56:22.301Z,4.90
2023-03-25T20:58:50.315Z,4.90
2023-03-25T21:01:18.692Z,4.90
2023-03-25T21:03:46.651Z,4.90
2023-03-25T21:06:24.008Z,4.90
2023-03-25T21:08:55.046Z,4.90
2023-03-25T21:11:22.605Z,4.90
2023-03-25T21:13:50.160Z,5.00
2023-03-25T21:16:18.313Z,5.20
2023-03-25T21:18:50.041Z,5.40
2023-03-25T21:21:19.560Z,5.50
2023-03-25T21:23:47.917Z,5.60
2023-03-25T21:26:17.896Z,5.70
2023-03-25T21:28:45.835Z,5.80
2023-03-25T21:31:19.402Z,5.90
2023-03-25T21:33:50.001Z,6.00
2023-03-25T21:36:27.663Z,6.00
2023-03-25T21:38:57.758Z,6.10
2023-03-25T21:41:26.067Z,6.10
2023-03-25T21:43:53.825Z,6.00
2023-03-25T21:46:27.744Z,6.00
2023-03-25T21:48:58.925Z,5.80
2023-03-25T21:51:27.066Z,5.70
2023-03-25T21:53:54.436Z,5.50
2023-03-25T21:56:25.399Z,5.40
2023-03-25T21:58:53.013Z,5.40
2023-03-25T22:01:28.924Z,5.20
2023-03-25T22:03:58.428Z,5.10
2023-03-25T22:06:28.330Z,5.10
2023-03-25T22:08:59.192Z,5.10
2023-03-25T22:11:30.826Z,5.00
2023-03-25T22:13:58.173Z,4.90
2023-03-25T22:16:26.064Z,5.00
2023-03-25T22:18:53.740Z,5.00
2023-03-25T22:21:26.895Z,5.00
2023-03-25T22:23:56.442Z,5.10
2023-03-25T22:26:25.012Z,5.20
2023-03-25T22:28:57.507Z,5.40
2023-03-25T22:31:30.845Z,5.50
2023-03-25T22:34:11.054Z,5.60
2023-03-25T22:36:43.163Z,5.70
2023-03-25T22:39:10.646Z,5.80
2023-03-25T22:41:38.533Z,5.90
2023-03-25T22:44:05.997Z,6.00
2023-03-25T22:46:34.101Z,6.20
2023-03-25T22:49:01.613Z,6.20
2023-03-25T22:51:28.736Z,6.30
2023-03-25T22:53:55.917Z,6.40
2023-03-25T22:56:24.469Z,6.30
2023-03-25T22:58:54.568Z,6.30
2023-03-25T23:01:27.020Z,6.30
2023-03-25T23:03:55.561Z,6.20
2023-03-25T23:06:23.900Z,6.40
2023-03-25T23:08:51.984Z,6.40
2023-03-25T23:11:25.607Z,6.30
2023-03-25T23:13:55.909Z,6.30
2023-03-25T23:16:27.577Z,6.40
2023-03-25T23:18:54.796Z,6.50
2023-03-25T23:21:25.618Z,6.60
2023-03-25T23:23:57.138Z,6.70
2023-03-25T23:26:27.617Z,6.80
2023-03-25T23:29:00.841Z,6.90
2023-03-25T23:31:34.268Z,7.00
2023-03-25T23:34:06.724Z,7.30
2023-03-25T23:36:39.650Z,7.40
2023-03-25T23:39:08.979Z,7.30
2023-03-25T23:41:36.577Z,7.30
2023-03-25T23:44:04.914Z,7.10
2023-03-25T23:46:32.631Z,7.00
2023-03-25T23:49:02.785Z,6.90
2023-03-25T23:51:33.352Z,6.80
2023-03-25T23:54:00.797Z,6.80
2023-03-25T23:56:28.621Z,6.90
2023-03-25T23:58:56.066Z,7.00
